sensor_id;sensor_type;location;lat;lon;timestamp;P1;durP1;ratioP1;P2;durP2;ratioP2
61642;SDS011;47551;52.506;4.678;2022-07-03T00:00:12;4.10;;;2.27;;
61642;SDS011;47551;52.506;4.678;2022-07-03T00:00:35;4.57;;;2.10;;
61642;SDS011;47551;52.506;4.678;2022-07-03T00:00:55;4.75;;;2.10;;
61642;SDS011;47551;52.506;4.678;2022-07-03T00:01:18;4.47;;;2.10;;
61642;SDS011;47551;52.506;4.678;2022-07-03T00:01:41;4.50;;;2.10;;
61642;SDS011;47551;52.506;4.678;2022-07-03T00:02:02;3.97;;;2.00;;
61642;SDS011;47551;52.506;4.678;2022-07-03T00:02:25;4.40;;;2.10;;
61642;SDS011;47551;52.506;4.678;2022-07-03T00:02:45;4.80;;;2.20;;
61642;SDS011;47551;52.506;4.678;2022-07-03T00:03:05;4.50;;;2.30;;
61642;SDS011;47551;52.506;4.678;2022-07-03T00:03:25;4.17;;;2.30;;
61642;SDS011;47551;52.506;4.678;2022-07-03T00:03:45;5.10;;;2.20;;
61642;SDS011;47551;52.506;4.678;2022-07-03T00:04:05;5.00;;;2.13;;
61642;SDS011;47551;52.506;4.678;2022-07-03T00:04:26;4.17;;;2.20;;
61642;SDS011;47551;52.506;4.678;2022-07-03T00:04:46;4.00;;;2.20;;
61642;SDS011;47551;52.506;4.678;2022-07-03T00:05:06;5.00;;;2.30;;
61642;SDS011;47551;52.506;4.678;2022-07-03T00:05:27;4.40;;;2.30;;
61642;SDS011;47551;52.506;4.678;2022-07-03T00:05:47;3.93;;;2.30;;
61642;SDS011;47551;52.506;4.678;2022-07-03T00:06:07;4.80;;;2.30;;
61642;SDS011;47551;52.506;4.678;2022-07-03T00:06:27;4.87;;;2.20;;
61642;SDS011;47551;52.506;4.678;2022-07-03T00:06:50;3.58;;;2.25;;
61642;SDS011;47551;52.506;4.678;2022-07-03T00:07:12;3.45;;;2.30;;
61642;SDS011;47551;52.506;4.678;2022-07-03T00:07:32;3.60;;;2.20;;
61642;SDS011;47551;52.506;4.678;2022-07-03T00:07:52;4.23;;;2.40;;
61642;SDS011;47551;52.506;4.678;2022-07-03T00:08:12;3.73;;;2.20;;
61642;SDS011;47551;52.506;4.678;2022-07-03T00:08:33;4.17;;;2.10;;
61642;SDS011;47551;52.506;4.678;2022-07-03T00:08:53;4.87;;;2.27;;
61642;SDS011;47551;52.506;4.678;2022-07-03T00:09:13;3.50;;;2.17;;
61642;SDS011;47551;52.506;4.678;2022-07-03T00:09:37;3.83;;;2.20;;
61642;SDS011;47551;52.506;4.678;2022-07-03T00:09:57;4.85;;;2.42;;
61642;SDS011;47551;52.506;4.678;2022-07-03T00:10:17;5.07;;;2.47;;
61642;SDS011;47551;52.506;4.678;2022-07-03T00:10:37;4.50;;;2.50;;
61642;SDS011;47551;52.506;4.678;2022-07-03T00:10:59;4.50;;;2.40;;
61642;SDS011;47551;52.506;4.678;2022-07-03T00:11:22;4.53;;;2.30;;
61642;SDS011;47551;52.506;4.678;2022-07-03T00:11:43;5.10;;;2.50;;
61642;SDS011;47551;52.506;4.678;2022-07-03T00:12:04;4.70;;;2.67;;
61642;SDS011;47551;52.506;4.678;2022-07-03T00:12:24;4.13;;;2.40;;
61642;SDS011;47551;52.506;4.678;2022-07-03T00:12:45;3.93;;;2.20;;
61642;SDS011;47551;52.506;4.678;2022-07-03T00:13:05;4.37;;;2.43;;
61642;SDS011;47551;52.506;4.678;2022-07-03T00:13:25;6.13;;;2.70;;
61642;SDS011;47551;52.506;4.678;2022-07-03T00:13:45;4.30;;;2.53;;
61642;SDS011;47551;52.506;4.678;2022-07-03T00:14:05;4.30;;;2.37;;
61642;SDS011;47551;52.506;4.678;2022-07-03T00:14:25;4.40;;;2.57;;
61642;SDS011;47551;52.506;4.678;2022-07-03T00:14:46;4.43;;;2.70;;
61642;SDS011;47551;52.506;4.678;2022-07-03T00:15:06;4.27;;;2.30;;
61642;SDS011;47551;52.506;4.678;2022-07-03T00:15:26;4.70;;;2.20;;
61642;SDS011;47551;52.506;4.678;2022-07-03T00:15:46;6.77;;;2.40;;
61642;SDS011;47551;52.506;4.678;2022-07-03T00:16:07;4.25;;;2.50;;
61642;SDS011;47551;52.506;4.678;2022-07-03T00:16:27;4.80;;;2.80;;
61642;SDS011;47551;52.506;4.678;2022-07-03T00:16:47;3.93;;;2.43;;
61642;SDS011;47551;52.506;4.678;2022-07-03T00:17:07;3.73;;;2.20;;
61642;SDS011;47551;52.506;4.678;2022-07-03T00:17:37;4.22;;;2.25;;
61642;SDS011;47551;52.506;4.678;2022-07-03T00:17:57;4.10;;;2.30;;
61642;SDS011;47551;52.506;4.678;2022-07-03T00:18:17;4.00;;;2.27;;
61642;SDS011;47551;52.506;4.678;2022-07-03T00:18:37;5.30;;;2.47;;
61642;SDS011;47551;52.506;4.678;2022-07-03T00:18:57;5.07;;;2.58;;
61642;SDS011;47551;52.506;4.678;2022-07-03T00:19:17;4.60;;;2.60;;
61642;SDS011;47551;52.506;4.678;2022-07-03T00:19:38;3.63;;;2.27;;
61642;SDS011;47551;52.506;4.678;2022-07-03T00:19:58;3.50;;;2.30;;
61642;SDS011;47551;52.506;4.678;2022-07-03T00:20:21;3.45;;;2.10;;
61642;SDS011;47551;52.506;4.678;2022-07-03T00:20:44;4.07;;;2.25;;
61642;SDS011;47551;52.506;4.678;2022-07-03T00:21:06;4.65;;;2.65;;
61642;SDS011;47551;52.506;4.678;2022-07-03T00:21:28;5.00;;;2.70;;
61642;SDS011;47551;52.506;4.678;2022-07-03T00:21:52;4.85;;;2.53;;
61642;SDS011;47551;52.506;4.678;2022-07-03T00:22:13;5.15;;;2.50;;
61642;SDS011;47551;52.506;4.678;2022-07-03T00:22:33;5.00;;;2.70;;
61642;SDS011;47551;52.506;4.678;2022-07-03T00:22:56;4.30;;;2.40;;
61642;SDS011;47551;52.506;4.678;2022-07-03T00:23:21;4.20;;;2.42;;
61642;SDS011;47551;52.506;4.678;2022-07-03T00:24:43;4.18;;;2.50;;
61642;SDS011;47551;52.506;4.678;2022-07-03T00:25:15;3.83;;;2.20;;
61642;SDS011;47551;52.506;4.678;2022-07-03T00:25:36;5.07;;;2.50;;
61642;SDS011;47551;52.506;4.678;2022-07-03T00:26:01;4.55;;;2.40;;
61642;SDS011;47551;52.506;4.678;2022-07-03T00:26:23;4.20;;;2.60;;
61642;SDS011;47551;52.506;4.678;2022-07-03T00:26:44;4.85;;;2.40;;
61642;SDS011;47551;52.506;4.678;2022-07-03T00:27:09;4.50;;;2.30;;
61642;SDS011;47551;52.506;4.678;2022-07-03T00:27:29;4.73;;;2.30;;
61642;SDS011;47551;52.506;4.678;2022-07-03T00:27:52;4.53;;;2.33;;
61642;SDS011;47551;52.506;4.678;2022-07-03T00:28:12;5.27;;;2.50;;
61642;SDS011;47551;52.506;4.678;2022-07-03T00:28:35;4.88;;;2.42;;
61642;SDS011;47551;52.506;4.678;2022-07-03T00:29:04;5.50;;;2.47;;
61642;SDS011;47551;52.506;4.678;2022-07-03T00:29:27;4.78;;;2.38;;
61642;SDS011;47551;52.506;4.678;2022-07-03T00:29:49;4.15;;;2.40;;
61642;SDS011;47551;52.506;4.678;2022-07-03T00:30:10;3.75;;;2.30;;
61642;SDS011;47551;52.506;4.678;2022-07-03T00:30:30;3.53;;;2.13;;
61642;SDS011;47551;52.506;4.678;2022-07-03T00:30:50;4.00;;;2.13;;
61642;SDS011;47551;52.506;4.678;2022-07-03T00:31:14;3.95;;;2.17;;
61642;SDS011;47551;52.506;4.678;2022-07-03T00:31:34;3.83;;;2.27;;
61642;SDS011;47551;52.506;4.678;2022-07-03T00:31:55;3.50;;;2.40;;
61642;SDS011;47551;52.506;4.678;2022-07-03T00:32:27;4.20;;;2.40;;
61642;SDS011;47551;52.506;4.678;2022-07-03T00:32:47;5.85;;;2.60;;
61642;SDS011;47551;52.506;4.678;2022-07-03T00:33:08;4.63;;;2.45;;
61642;SDS011;47551;52.506;4.678;2022-07-03T00:33:29;4.40;;;2.20;;
61642;SDS011;47551;52.506;4.678;2022-07-03T00:33:51;4.57;;;2.30;;
61642;SDS011;47551;52.506;4.678;2022-07-03T00:34:13;4.40;;;2.40;;
61642;SDS011;47551;52.506;4.678;2022-07-03T00:34:35;4.30;;;2.25;;
61642;SDS011;47551;52.506;4.678;2022-07-03T00:34:56;4.55;;;2.40;;
61642;SDS011;47551;52.506;4.678;2022-07-03T00:35:17;4.60;;;2.30;;
61642;SDS011;47551;52.506;4.678;2022-07-03T00:35:37;4.23;;;2.07;;
61642;SDS011;47551;52.506;4.678;2022-07-03T00:35:59;3.72;;;2.00;;
61642;SDS011;47551;52.506;4.678;2022-07-03T00:36:19;3.57;;;1.93;;
61642;SDS011;47551;52.506;4.678;2022-07-03T00:36:40;4.72;;;1.92;;
61642;SDS011;47551;52.506;4.678;2022-07-03T00:37:01;4.70;;;2.10;;
61642;SDS011;47551;52.506;4.678;2022-07-03T00:37:22;3.83;;;2.03;;
61642;SDS011;47551;52.506;4.678;2022-07-03T00:37:42;4.60;;;2.10;;
61642;SDS011;47551;52.506;4.678;2022-07-03T00:38:03;4.35;;;2.30;;
61642;SDS011;47551;52.506;4.678;2022-07-03T00:38:23;3.40;;;2.07;;
61642;SDS011;47551;52.506;4.678;2022-07-03T00:38:44;3.40;;;1.95;;
61642;SDS011;47551;52.506;4.678;2022-07-03T00:39:04;3.80;;;2.00;;
61642;SDS011;47551;52.506;4.678;2022-07-03T00:39:25;3.70;;;1.90;;
61642;SDS011;47551;52.506;4.678;2022-07-03T00:39:46;3.50;;;2.08;;
61642;SDS011;47551;52.506;4.678;2022-07-03T00:40:08;4.13;;;2.10;;
61642;SDS011;47551;52.506;4.678;2022-07-03T00:40:28;4.70;;;2.10;;
61642;SDS011;47551;52.506;4.678;2022-07-03T00:40:49;4.83;;;2.10;;
61642;SDS011;47551;52.506;4.678;2022-07-03T00:41:09;4.80;;;2.13;;
61642;SDS011;47551;52.506;4.678;2022-07-03T00:41:44;4.25;;;2.00;;
61642;SDS011;47551;52.506;4.678;2022-07-03T00:42:06;4.45;;;2.00;;
61642;SDS011;47551;52.506;4.678;2022-07-03T00:42:26;4.70;;;1.92;;
61642;SDS011;47551;52.506;4.678;2022-07-03T00:42:49;4.40;;;1.80;;
61642;SDS011;47551;52.506;4.678;2022-07-03T00:43:09;3.15;;;2.00;;
61642;SDS011;47551;52.506;4.678;2022-07-03T00:43:29;3.97;;;2.00;;
61642;SDS011;47551;52.506;4.678;2022-07-03T00:43:50;4.77;;;1.90;;
61642;SDS011;47551;52.506;4.678;2022-07-03T00:44:10;3.97;;;1.80;;
61642;SDS011;47551;52.506;4.678;2022-07-03T00:44:31;5.33;;;1.90;;
61642;SDS011;47551;52.506;4.678;2022-07-03T00:44:53;4.97;;;1.92;;
61642;SDS011;47551;52.506;4.678;2022-07-03T00:45:14;3.65;;;1.90;;
61642;SDS011;47551;52.506;4.678;2022-07-03T00:45:35;3.38;;;1.80;;
61642;SDS011;47551;52.506;4.678;2022-07-03T00:46:03;3.80;;;1.80;;
61642;SDS011;47551;52.506;4.678;2022-07-03T00:46:26;4.60;;;2.05;;
61642;SDS011;47551;52.506;4.678;2022-07-03T00:46:46;4.07;;;2.00;;
61642;SDS011;47551;52.506;4.678;2022-07-03T00:47:08;3.88;;;2.03;;
61642;SDS011;47551;52.506;4.678;2022-07-03T00:47:28;4.17;;;1.90;;
61642;SDS011;47551;52.506;4.678;2022-07-03T00:47:48;4.27;;;1.90;;
61642;SDS011;47551;52.506;4.678;2022-07-03T00:48:08;3.60;;;2.00;;
61642;SDS011;47551;52.506;4.678;2022-07-03T00:48:30;4.30;;;1.90;;
61642;SDS011;47551;52.506;4.678;2022-07-03T00:48:56;4.47;;;1.95;;
61642;SDS011;47551;52.506;4.678;2022-07-03T00:49:17;3.50;;;1.90;;
61642;SDS011;47551;52.506;4.678;2022-07-03T00:49:37;3.90;;;1.90;;
61642;SDS011;47551;52.506;4.678;2022-07-03T00:49:58;4.18;;;2.00;;
61642;SDS011;47551;52.506;4.678;2022-07-03T00:50:18;5.03;;;2.00;;
61642;SDS011;47551;52.506;4.678;2022-07-03T00:50:47;4.32;;;1.88;;
61642;SDS011;47551;52.506;4.678;2022-07-03T00:51:07;4.32;;;2.00;;
61642;SDS011;47551;52.506;4.678;2022-07-03T00:51:32;4.57;;;2.03;;
61642;SDS011;47551;52.506;4.678;2022-07-03T00:51:56;3.90;;;1.80;;
61642;SDS011;47551;52.506;4.678;2022-07-03T00:52:19;3.50;;;1.80;;
61642;SDS011;47551;52.506;4.678;2022-07-03T00:52:42;4.05;;;1.98;;
61642;SDS011;47551;52.506;4.678;2022-07-03T00:53:03;4.55;;;2.00;;
61642;SDS011;47551;52.506;4.678;2022-07-03T00:53:27;3.60;;;1.93;;
61642;SDS011;47551;52.506;4.678;2022-07-03T00:53:48;5.00;;;2.15;;
61642;SDS011;47551;52.506;4.678;2022-07-03T00:54:09;5.85;;;1.95;;
61642;SDS011;47551;52.506;4.678;2022-07-03T00:54:32;4.57;;;1.98;;
61642;SDS011;47551;52.506;4.678;2022-07-03T00:55:00;4.80;;;1.88;;
61642;SDS011;47551;52.506;4.678;2022-07-03T00:55:20;4.47;;;2.00;;
61642;SDS011;47551;52.506;4.678;2022-07-03T00:55:42;5.68;;;2.00;;
61642;SDS011;47551;52.506;4.678;2022-07-03T00:56:04;4.32;;;1.90;;
61642;SDS011;47551;52.506;4.678;2022-07-03T00:56:26;4.40;;;2.00;;
61642;SDS011;47551;52.506;4.678;2022-07-03T00:56:49;4.82;;;1.80;;
61642;SDS011;47551;52.506;4.678;2022-07-03T00:57:13;3.80;;;1.80;;
61642;SDS011;47551;52.506;4.678;2022-07-03T00:57:36;4.10;;;2.00;;
61642;SDS011;47551;52.506;4.678;2022-07-03T00:58:03;4.15;;;1.90;;
61642;SDS011;47551;52.506;4.678;2022-07-03T00:58:24;4.07;;;1.83;;
61642;SDS011;47551;52.506;4.678;2022-07-03T00:58:44;3.77;;;1.90;;
61642;SDS011;47551;52.506;4.678;2022-07-03T00:59:05;4.88;;;1.90;;
61642;SDS011;47551;52.506;4.678;2022-07-03T00:59:25;6.50;;;1.90;;
61642;SDS011;47551;52.506;4.678;2022-07-03T00:59:45;5.17;;;1.70;;
61642;SDS011;47551;52.506;4.678;2022-07-03T01:00:05;4.13;;;1.80;;
61642;SDS011;47551;52.506;4.678;2022-07-03T01:00:26;4.78;;;1.92;;
61642;SDS011;47551;52.506;4.678;2022-07-03T01:00:46;4.83;;;1.90;;
61642;SDS011;47551;52.506;4.678;2022-07-03T01:01:07;3.65;;;1.60;;
61642;SDS011;47551;52.506;4.678;2022-07-03T01:01:29;3.45;;;1.58;;
61642;SDS011;47551;52.506;4.678;2022-07-03T01:01:51;3.60;;;1.65;;
61642;SDS011;47551;52.506;4.678;2022-07-03T01:02:17;4.50;;;1.85;;
61642;SDS011;47551;52.506;4.678;2022-07-03T01:03:21;4.55;;;1.80;;
61642;SDS011;47551;52.506;4.678;2022-07-03T01:03:45;3.88;;;1.65;;
61642;SDS011;47551;52.506;4.678;2022-07-03T01:05:03;5.60;;;1.80;;
61642;SDS011;47551;52.506;4.678;2022-07-03T01:05:54;2.72;;;1.40;;
61642;SDS011;47551;52.506;4.678;2022-07-03T01:06:16;5.28;;;1.70;;
61642;SDS011;47551;52.506;4.678;2022-07-03T01:06:39;4.68;;;1.80;;
61642;SDS011;47551;52.506;4.678;2022-07-03T01:07:02;3.97;;;1.50;;
61642;SDS011;47551;52.506;4.678;2022-07-03T01:08:41;4.57;;;1.63;;
61642;SDS011;47551;52.506;4.678;2022-07-03T01:09:03;5.30;;;1.58;;
61642;SDS011;47551;52.506;4.678;2022-07-03T01:09:43;4.82;;;1.48;;
61642;SDS011;47551;52.506;4.678;2022-07-03T01:11:34;3.63;;;1.25;;
61642;SDS011;47551;52.506;4.678;2022-07-03T01:12:05;2.95;;;1.20;;
61642;SDS011;47551;52.506;4.678;2022-07-03T01:13:18;3.38;;;1.40;;
61642;SDS011;47551;52.506;4.678;2022-07-03T01:14:15;4.87;;;1.40;;
61642;SDS011;47551;52.506;4.678;2022-07-03T01:15:02;5.32;;;1.33;;
61642;SDS011;47551;52.506;4.678;2022-07-03T01:16:49;4.32;;;1.50;;
61642;SDS011;47551;52.506;4.678;2022-07-03T01:17:16;4.53;;;1.30;;
61642;SDS011;47551;52.506;4.678;2022-07-03T01:17:39;3.88;;;1.27;;
61642;SDS011;47551;52.506;4.678;2022-07-03T01:18:43;4.95;;;1.60;;
61642;SDS011;47551;52.506;4.678;2022-07-03T01:19:45;4.13;;;1.50;;
61642;SDS011;47551;52.506;4.678;2022-07-03T01:20:06;3.88;;;1.50;;
61642;SDS011;47551;52.506;4.678;2022-07-03T01:20:27;4.25;;;1.40;;
61642;SDS011;47551;52.506;4.678;2022-07-03T01:20:51;4.38;;;1.58;;
61642;SDS011;47551;52.506;4.678;2022-07-03T01:21:57;4.18;;;1.50;;
61642;SDS011;47551;52.506;4.678;2022-07-03T01:22:02;4.00;;;1.67;;
61642;SDS011;47551;52.506;4.678;2022-07-03T01:22:34;4.72;;;1.58;;
61642;SDS011;47551;52.506;4.678;2022-07-03T01:22:57;3.63;;;1.40;;
61642;SDS011;47551;52.506;4.678;2022-07-03T01:24:59;4.57;;;1.65;;
61642;SDS011;47551;52.506;4.678;2022-07-03T01:25:25;5.15;;;1.60;;
61642;SDS011;47551;52.506;4.678;2022-07-03T01:25:47;5.32;;;1.70;;
61642;SDS011;47551;52.506;4.678;2022-07-03T01:26:09;4.50;;;1.65;;
61642;SDS011;47551;52.506;4.678;2022-07-03T01:26:30;4.40;;;1.70;;
61642;SDS011;47551;52.506;4.678;2022-07-03T01:26:55;4.57;;;1.55;;
61642;SDS011;47551;52.506;4.678;2022-07-03T01:27:18;5.57;;;1.90;;
61642;SDS011;47551;52.506;4.678;2022-07-03T01:28:15;5.40;;;1.88;;
61642;SDS011;47551;52.506;4.678;2022-07-03T01:28:36;5.70;;;1.70;;
61642;SDS011;47551;52.506;4.678;2022-07-03T01:28:59;6.20;;;1.50;;
61642;SDS011;47551;52.506;4.678;2022-07-03T01:29:29;4.90;;;1.75;;
61642;SDS011;47551;52.506;4.678;2022-07-03T01:29:56;5.70;;;1.55;;
61642;SDS011;47551;52.506;4.678;2022-07-03T01:30:18;5.05;;;1.40;;
61642;SDS011;47551;52.506;4.678;2022-07-03T01:30:41;4.82;;;1.45;;
61642;SDS011;47551;52.506;4.678;2022-07-03T01:31:02;3.85;;;1.33;;
61642;SDS011;47551;52.506;4.678;2022-07-03T01:31:22;2.97;;;1.33;;
61642;SDS011;47551;52.506;4.678;2022-07-03T01:31:48;3.20;;;1.30;;
61642;SDS011;47551;52.506;4.678;2022-07-03T01:32:11;3.30;;;1.40;;
61642;SDS011;47551;52.506;4.678;2022-07-03T01:32:38;4.13;;;1.65;;
61642;SDS011;47551;52.506;4.678;2022-07-03T01:33:24;4.80;;;1.42;;
61642;SDS011;47551;52.506;4.678;2022-07-03T01:33:45;5.00;;;1.45;;
61642;SDS011;47551;52.506;4.678;2022-07-03T01:34:08;4.70;;;1.38;;
61642;SDS011;47551;52.506;4.678;2022-07-03T01:34:34;4.30;;;1.40;;
61642;SDS011;47551;52.506;4.678;2022-07-03T01:34:54;4.32;;;1.50;;
61642;SDS011;47551;52.506;4.678;2022-07-03T01:35:20;4.22;;;1.42;;
61642;SDS011;47551;52.506;4.678;2022-07-03T01:35:41;3.20;;;1.40;;
61642;SDS011;47551;52.506;4.678;2022-07-03T01:36:22;3.80;;;1.50;;
61642;SDS011;47551;52.506;4.678;2022-07-03T01:36:43;3.90;;;1.23;;
61642;SDS011;47551;52.506;4.678;2022-07-03T01:37:06;4.00;;;1.10;;
61642;SDS011;47551;52.506;4.678;2022-07-03T01:37:27;3.67;;;1.20;;
61642;SDS011;47551;52.506;4.678;2022-07-03T01:37:50;3.72;;;1.40;;
61642;SDS011;47551;52.506;4.678;2022-07-03T01:38:10;3.38;;;1.33;;
61642;SDS011;47551;52.506;4.678;2022-07-03T01:38:32;4.60;;;1.40;;
61642;SDS011;47551;52.506;4.678;2022-07-03T01:38:53;5.88;;;1.50;;
61642;SDS011;47551;52.506;4.678;2022-07-03T01:39:16;4.60;;;1.65;;
61642;SDS011;47551;52.506;4.678;2022-07-03T01:39:36;5.53;;;1.73;;
61642;SDS011;47551;52.506;4.678;2022-07-03T01:39:57;4.87;;;1.77;;
61642;SDS011;47551;52.506;4.678;2022-07-03T01:40:18;4.67;;;1.60;;
61642;SDS011;47551;52.506;4.678;2022-07-03T01:40:39;4.03;;;1.47;;
61642;SDS011;47551;52.506;4.678;2022-07-03T01:41:00;4.22;;;1.55;;
61642;SDS011;47551;52.506;4.678;2022-07-03T01:41:21;4.30;;;1.70;;
61642;SDS011;47551;52.506;4.678;2022-07-03T01:41:44;5.88;;;1.90;;
61642;SDS011;47551;52.506;4.678;2022-07-03T01:42:05;5.32;;;1.80;;
61642;SDS011;47551;52.506;4.678;2022-07-03T01:42:25;5.15;;;1.90;;
61642;SDS011;47551;52.506;4.678;2022-07-03T01:42:51;5.32;;;1.80;;
61642;SDS011;47551;52.506;4.678;2022-07-03T01:43:12;5.23;;;1.80;;
61642;SDS011;47551;52.506;4.678;2022-07-03T01:43:33;5.45;;;1.80;;
61642;SDS011;47551;52.506;4.678;2022-07-03T01:43:55;4.65;;;1.50;;
61642;SDS011;47551;52.506;4.678;2022-07-03T01:44:15;3.97;;;1.45;;
61642;SDS011;47551;52.506;4.678;2022-07-03T01:44:37;3.28;;;1.42;;
61642;SDS011;47551;52.506;4.678;2022-07-03T01:44:59;3.75;;;1.55;;
61642;SDS011;47551;52.506;4.678;2022-07-03T01:45:19;4.80;;;1.60;;
61642;SDS011;47551;52.506;4.678;2022-07-03T01:45:44;4.38;;;1.55;;
61642;SDS011;47551;52.506;4.678;2022-07-03T01:46:06;4.75;;;1.60;;
61642;SDS011;47551;52.506;4.678;2022-07-03T01:46:27;4.77;;;1.70;;
61642;SDS011;47551;52.506;4.678;2022-07-03T01:46:48;4.05;;;1.45;;
61642;SDS011;47551;52.506;4.678;2022-07-03T01:47:29;4.87;;;1.60;;
61642;SDS011;47551;52.506;4.678;2022-07-03T01:47:48;3.35;;;1.40;;
61642;SDS011;47551;52.506;4.678;2022-07-03T01:48:10;4.75;;;1.30;;
61642;SDS011;47551;52.506;4.678;2022-07-03T01:48:30;3.80;;;1.30;;
61642;SDS011;47551;52.506;4.678;2022-07-03T01:48:51;3.08;;;1.25;;
61642;SDS011;47551;52.506;4.678;2022-07-03T01:49:12;3.93;;;1.37;;
61642;SDS011;47551;52.506;4.678;2022-07-03T01:49:33;4.63;;;1.30;;
61642;SDS011;47551;52.506;4.678;2022-07-03T01:49:55;4.95;;;1.40;;
61642;SDS011;47551;52.506;4.678;2022-07-03T01:50:15;4.13;;;1.30;;
61642;SDS011;47551;52.506;4.678;2022-07-03T01:50:36;2.80;;;1.20;;
61642;SDS011;47551;52.506;4.678;2022-07-03T01:50:57;2.88;;;1.10;;
61642;SDS011;47551;52.506;4.678;2022-07-03T01:51:17;3.53;;;1.20;;
61642;SDS011;47551;52.506;4.678;2022-07-03T01:51:38;3.40;;;1.25;;
61642;SDS011;47551;52.506;4.678;2022-07-03T01:51:58;4.20;;;1.20;;
61642;SDS011;47551;52.506;4.678;2022-07-03T01:52:20;3.50;;;1.20;;
61642;SDS011;47551;52.506;4.678;2022-07-03T01:52:41;3.53;;;1.00;;
61642;SDS011;47551;52.506;4.678;2022-07-03T01:53:03;3.88;;;1.20;;
61642;SDS011;47551;52.506;4.678;2022-07-03T01:53:24;4.07;;;1.30;;
61642;SDS011;47551;52.506;4.678;2022-07-03T01:53:49;3.22;;;1.20;;
61642;SDS011;47551;52.506;4.678;2022-07-03T01:54:09;4.07;;;1.20;;
61642;SDS011;47551;52.506;4.678;2022-07-03T01:54:30;3.22;;;1.10;;
61642;SDS011;47551;52.506;4.678;2022-07-03T01:54:51;3.75;;;1.20;;
61642;SDS011;47551;52.506;4.678;2022-07-03T01:55:13;3.00;;;1.20;;
61642;SDS011;47551;52.506;4.678;2022-07-03T01:55:34;2.85;;;1.10;;
61642;SDS011;47551;52.506;4.678;2022-07-03T01:56:00;3.00;;;1.13;;
61642;SDS011;47551;52.506;4.678;2022-07-03T01:56:22;3.15;;;1.00;;
61642;SDS011;47551;52.506;4.678;2022-07-03T01:56:43;3.90;;;1.10;;
61642;SDS011;47551;52.506;4.678;2022-07-03T01:57:08;3.30;;;1.17;;
61642;SDS011;47551;52.506;4.678;2022-07-03T01:57:35;4.00;;;1.23;;
61642;SDS011;47551;52.506;4.678;2022-07-03T01:57:57;4.25;;;1.40;;
61642;SDS011;47551;52.506;4.678;2022-07-03T01:58:18;3.75;;;1.20;;
61642;SDS011;47551;52.506;4.678;2022-07-03T01:58:38;4.00;;;1.27;;
61642;SDS011;47551;52.506;4.678;2022-07-03T01:58:58;4.00;;;1.40;;
61642;SDS011;47551;52.506;4.678;2022-07-03T01:59:19;3.65;;;1.30;;
61642;SDS011;47551;52.506;4.678;2022-07-03T01:59:39;4.80;;;1.43;;
61642;SDS011;47551;52.506;4.678;2022-07-03T01:59:59;4.27;;;1.50;;
61642;SDS011;47551;52.506;4.678;2022-07-03T02:00:20;3.83;;;1.40;;
61642;SDS011;47551;52.506;4.678;2022-07-03T02:01:22;5.30;;;1.87;;
61642;SDS011;47551;52.506;4.678;2022-07-03T02:01:45;5.40;;;1.70;;
61642;SDS011;47551;52.506;4.678;2022-07-03T02:02:32;5.68;;;1.88;;
61642;SDS011;47551;52.506;4.678;2022-07-03T02:03:03;5.28;;;1.88;;
61642;SDS011;47551;52.506;4.678;2022-07-03T02:03:25;5.35;;;2.00;;
61642;SDS011;47551;52.506;4.678;2022-07-03T02:04:08;6.65;;;2.03;;
61642;SDS011;47551;52.506;4.678;2022-07-03T02:05:21;5.68;;;1.95;;
61642;SDS011;47551;52.506;4.678;2022-07-03T02:05:47;5.47;;;1.77;;
61642;SDS011;47551;52.506;4.678;2022-07-03T02:06:51;5.30;;;1.60;;
61642;SDS011;47551;52.506;4.678;2022-07-03T02:08:02;4.18;;;1.33;;
61642;SDS011;47551;52.506;4.678;2022-07-03T02:09:18;3.70;;;1.50;;
61642;SDS011;47551;52.506;4.678;2022-07-03T02:10:25;3.95;;;1.35;;
61642;SDS011;47551;52.506;4.678;2022-07-03T02:10:29;3.88;;;1.20;;
61642;SDS011;47551;52.506;4.678;2022-07-03T02:11:21;4.15;;;1.10;;
61642;SDS011;47551;52.506;4.678;2022-07-03T02:11:43;4.60;;;1.20;;
61642;SDS011;47551;52.506;4.678;2022-07-03T02:12:04;4.32;;;1.30;;
61642;SDS011;47551;52.506;4.678;2022-07-03T02:12:27;3.17;;;1.23;;
61642;SDS011;47551;52.506;4.678;2022-07-03T02:12:48;3.58;;;1.10;;
61642;SDS011;47551;52.506;4.678;2022-07-03T02:13:44;4.20;;;1.20;;
61642;SDS011;47551;52.506;4.678;2022-07-03T02:14:36;3.35;;;1.00;;
61642;SDS011;47551;52.506;4.678;2022-07-03T02:15:03;3.97;;;1.15;;
61642;SDS011;47551;52.506;4.678;2022-07-03T02:15:30;3.42;;;1.10;;
61642;SDS011;47551;52.506;4.678;2022-07-03T02:15:51;3.78;;;1.15;;
61642;SDS011;47551;52.506;4.678;2022-07-03T02:16:12;3.72;;;1.20;;
61642;SDS011;47551;52.506;4.678;2022-07-03T02:16:41;4.18;;;1.23;;
61642;SDS011;47551;52.506;4.678;2022-07-03T02:17:09;4.72;;;1.30;;
61642;SDS011;47551;52.506;4.678;2022-07-03T02:17:42;4.30;;;1.30;;
61642;SDS011;47551;52.506;4.678;2022-07-03T02:18:25;5.28;;;1.38;;
61642;SDS011;47551;52.506;4.678;2022-07-03T02:18:49;4.50;;;1.42;;
61642;SDS011;47551;52.506;4.678;2022-07-03T02:19:15;3.72;;;1.48;;
61642;SDS011;47551;52.506;4.678;2022-07-03T02:20:15;4.43;;;1.45;;
61642;SDS011;47551;52.506;4.678;2022-07-03T02:20:35;3.20;;;1.20;;
61642;SDS011;47551;52.506;4.678;2022-07-03T02:21:21;4.68;;;1.30;;
61642;SDS011;47551;52.506;4.678;2022-07-03T02:21:48;4.20;;;1.50;;
61642;SDS011;47551;52.506;4.678;2022-07-03T02:22:10;4.85;;;1.55;;
61642;SDS011;47551;52.506;4.678;2022-07-03T02:22:32;5.78;;;1.60;;
61642;SDS011;47551;52.506;4.678;2022-07-03T02:22:56;5.07;;;1.50;;
61642;SDS011;47551;52.506;4.678;2022-07-03T02:23:17;5.43;;;1.42;;
61642;SDS011;47551;52.506;4.678;2022-07-03T02:24:19;4.38;;;1.60;;
61642;SDS011;47551;52.506;4.678;2022-07-03T02:24:49;3.67;;;1.40;;
61642;SDS011;47551;52.506;4.678;2022-07-03T02:25:19;2.92;;;1.30;;
61642;SDS011;47551;52.506;4.678;2022-07-03T02:25:41;4.30;;;1.50;;
61642;SDS011;47551;52.506;4.678;2022-07-03T02:26:04;4.88;;;1.70;;
61642;SDS011;47551;52.506;4.678;2022-07-03T02:26:29;4.28;;;1.50;;
61642;SDS011;47551;52.506;4.678;2022-07-03T02:27:04;3.65;;;1.20;;
61642;SDS011;47551;52.506;4.678;2022-07-03T02:27:25;4.75;;;1.60;;
61642;SDS011;47551;52.506;4.678;2022-07-03T02:28:02;3.80;;;1.20;;
61642;SDS011;47551;52.506;4.678;2022-07-03T02:29:01;4.43;;;1.45;;
61642;SDS011;47551;52.506;4.678;2022-07-03T02:29:26;3.70;;;1.33;;
61642;SDS011;47551;52.506;4.678;2022-07-03T02:29:56;3.28;;;1.30;;
61642;SDS011;47551;52.506;4.678;2022-07-03T02:30:19;4.00;;;1.35;;
61642;SDS011;47551;52.506;4.678;2022-07-03T02:30:41;3.73;;;1.20;;
61642;SDS011;47551;52.506;4.678;2022-07-03T02:31:02;3.85;;;1.30;;
61642;SDS011;47551;52.506;4.678;2022-07-03T02:31:26;4.07;;;1.40;;
61642;SDS011;47551;52.506;4.678;2022-07-03T02:31:54;4.22;;;1.42;;
61642;SDS011;47551;52.506;4.678;2022-07-03T02:32:21;4.15;;;1.50;;
61642;SDS011;47551;52.506;4.678;2022-07-03T02:32:49;4.10;;;1.70;;
61642;SDS011;47551;52.506;4.678;2022-07-03T02:33:10;3.22;;;1.33;;
61642;SDS011;47551;52.506;4.678;2022-07-03T02:33:31;4.80;;;1.35;;
61642;SDS011;47551;52.506;4.678;2022-07-03T02:33:56;4.07;;;1.38;;
61642;SDS011;47551;52.506;4.678;2022-07-03T02:34:18;4.25;;;1.38;;
61642;SDS011;47551;52.506;4.678;2022-07-03T02:34:42;3.75;;;1.45;;
61642;SDS011;47551;52.506;4.678;2022-07-03T02:35:04;3.42;;;1.30;;
61642;SDS011;47551;52.506;4.678;2022-07-03T02:35:26;3.40;;;1.30;;
61642;SDS011;47551;52.506;4.678;2022-07-03T02:35:47;3.00;;;1.20;;
61642;SDS011;47551;52.506;4.678;2022-07-03T02:36:10;2.95;;;1.17;;
61642;SDS011;47551;52.506;4.678;2022-07-03T02:36:30;3.20;;;1.13;;
61642;SDS011;47551;52.506;4.678;2022-07-03T02:36:52;3.00;;;1.20;;
61642;SDS011;47551;52.506;4.678;2022-07-03T02:37:17;3.08;;;1.30;;
61642;SDS011;47551;52.506;4.678;2022-07-03T02:37:39;3.75;;;1.50;;
61642;SDS011;47551;52.506;4.678;2022-07-03T02:38:21;4.57;;;1.50;;
61642;SDS011;47551;52.506;4.678;2022-07-03T02:38:41;3.67;;;1.30;;